Archival Weather

Centro Met. Antartico Pdte. E

Centro Met. Antartico Pdte. E, Antarctica (SCRM)

Report from: Thursday, September 21, 2023 6:00 PM UTC
Current time: Friday, February 23, 2024 7:20 PM UTC

Current weather – Weather history – Daily summaries
Weather forecast

Temperature-7.0°C (19.4°F)
Wind chill-17.2°C (1.1°F)
Dew point-11.0°C (12.2°F)
Winds 24 kts (12.3 m/s, 27.6 mph) West-Southwest (240°)
Visibility6.2 mi. (10 km)
Clouds Ceiling: Broken clouds 2,500 ft. (762 m)
Altimeter29.15 in.Hg (987 mB)
Relative humidity73 %
Density altitude-1,775 ft. (-541 m)
Remarks No significant changes expected in the next two hours
Flight conditions Marginal Visual Meteorological Conditions
Raw dataSCRM 211800Z 24024KT 9999 BKN025 M07/M11 Q0987 NOSIG
An error has occurred. This application may no longer respond until reloaded. Reload 🗙